Time;durP1;ratioP1;P1;durP2;ratioP2;P2;SDS_P1;SDS_P2;PMS_P1;PMS_P2;Temp;Humidity;BMP_temperature;BMP_pressure;BME280_temperature;BME280_humidity;BME280_pressure;Samples;Min_cycle;Max_cycle;Signal;HPM_P1;HPM_P2
2023/07/13 00:01:51;;;;;;;;;;;17.70;99.90;;;;;;5029587;28;19935;-70
2023/07/13 00:04:18;;;;;;;;;;;17.70;1.00;;;;;;5012416;28;19929;-70
2023/07/13 00:06:46;;;;;;;;;;;17.70;1.00;;;;;;5012127;28;20334;-70
2023/07/13 00:09:13;;;;;;;;;;;17.70;99.90;;;;;;5029608;28;20449;-70
2023/07/13 00:11:39;;;;;;;;;;;17.70;99.90;;;;;;5029478;28;19937;-70
2023/07/13 00:14:05;;;;;;;;;;;17.60;99.90;;;;;;5011962;28;19926;-70
2023/07/13 00:16:30;;;;;;;;;;;17.50;99.90;;;;;;5029990;28;19925;-70
2023/07/13 00:18:56;;;;;;;;;;;17.50;1.00;;;;;;5028776;28;20351;-70
2023/07/13 00:21:21;;;;;;;;;;;17.50;1.00;;;;;;5030031;28;20290;-70
2023/07/13 00:23:48;;;;;;;;;;;17.50;12.00;;;;;;5012715;28;19972;-71
2023/07/13 00:26:13;;;;;;;;;;;17.40;14.00;;;;;;5021624;28;19929;-70
2023/07/13 00:28:39;;;;;;;;;;;17.40;99.90;;;;;;5026304;28;19932;-70
2023/07/13 00:31:05;;;;;;;;;;;17.40;99.90;;;;;;5027246;28;19925;-70
2023/07/13 00:33:31;;;;;;;;;;;17.40;99.90;;;;;;5011344;28;19940;-70
2023/07/13 00:35:56;;;;;;;;;;;17.30;99.90;;;;;;5026642;28;19971;-70
2023/07/13 00:38:22;;;;;;;;;;;17.30;99.90;;;;;;5010550;28;19965;-70
2023/07/13 00:40:48;;;;;;;;;;;17.30;99.90;;;;;;5010377;28;20016;-70
2023/07/13 00:43:15;;;;;;;;;;;17.30;1.00;;;;;;5009462;28;20496;-70
2023/07/13 00:45:44;;;;;;;;;;;17.30;1.00;;;;;;5009301;28;19953;-70
2023/07/13 00:48:18;;;;;;;;;;;17.30;1.00;;;;;;5026005;28;19948;-70
2023/07/13 00:50:44;;;;;;;;;;;17.20;91.50;;;;;;5028568;28;19978;-70
2023/07/13 00:53:11;;;;;;;;;;;17.20;1.00;;;;;;5022993;28;20395;-70
2023/07/13 00:55:37;;;;;;;;;;;17.20;99.90;;;;;;5021999;28;19937;-70
2023/07/13 00:58:04;;;;;;;;;;;17.20;39.30;;;;;;5027471;28;20302;-70
2023/07/13 01:00:30;;;;;;;;;;;17.20;1.00;;;;;;5028646;28;19925;-70
2023/07/13 01:02:56;;;;;;;;;;;17.20;18.20;;;;;;5027654;28;20370;-70
2023/07/13 01:05:22;;;;;;;;;;;17.20;1.00;;;;;;5028530;28;19951;-70
2023/07/13 01:07:49;;;;;;;;;;;17.30;99.90;;;;;;5028012;28;19929;-70
2023/07/13 01:10:15;;;;;;;;;;;17.20;1.00;;;;;;5028688;28;19929;-70
2023/07/13 01:12:41;;;;;;;;;;;17.20;7.60;;;;;;5028057;28;20263;-71
2023/07/13 01:15:26;;;;;;;;;;;17.20;99.90;;;;;;5011478;28;19932;-70
2023/07/13 01:17:52;;;;;;;;;;;17.20;1.00;;;;;;5031526;28;19929;-70
2023/07/13 01:20:17;;;;;;;;;;;17.30;99.90;;;;;;5032189;28;20664;-70
2023/07/13 01:22:43;;;;;;;;;;;17.30;99.90;;;;;;5012965;28;20473;-70
2023/07/13 01:25:08;;;;;;;;;;;17.30;47.10;;;;;;5029928;28;20350;-70
2023/07/13 01:27:34;;;;;;;;;;;17.30;99.90;;;;;;5013789;28;20386;-70
2023/07/13 01:30:03;;;;;;;;;;;17.30;99.90;;;;;;5019530;28;20044;-70
2023/07/13 01:32:31;;;;;;;;;;;17.30;1.00;;;;;;5032327;28;20309;-70
2023/07/13 01:34:56;;;;;;;;;;;17.30;1.00;;;;;;5032350;28;19944;-70
2023/07/13 01:37:26;;;;;;;;;;;17.30;1.00;;;;;;5032154;28;19925;-70
2023/07/13 01:39:51;;;;;;;;;;;17.30;99.90;;;;;;5032255;28;19926;-70
2023/07/13 01:42:17;;;;;;;;;;;17.30;99.90;;;;;;5031745;28;19951;-71
2023/07/13 01:44:43;;;;;;;;;;;17.30;99.90;;;;;;5031287;28;19968;-70
2023/07/13 01:47:09;;;;;;;;;;;17.30;99.90;;;;;;5025141;28;19987;-70
2023/07/13 01:49:35;;;;;;;;;;;17.30;99.90;;;;;;5030432;28;19960;-70
2023/07/13 01:52:00;;;;;;;;;;;17.30;99.90;;;;;;5031345;28;19983;-70
2023/07/13 01:54:26;;;;;;;;;;;17.30;99.90;;;;;;5031791;28;19932;-70
2023/07/13 01:56:51;;;;;;;;;;;17.30;1.00;;;;;;5031769;28;19925;-71
2023/07/13 01:59:17;;;;;;;;;;;17.30;1.00;;;;;;5031562;28;20015;-70
2023/07/13 02:01:42;;;;;;;;;;;17.30;1.00;;;;;;5031499;28;20789;-70
2023/07/13 02:04:08;;;;;;;;;;;17.30;1.00;;;;;;5046661;28;19925;-70
2023/07/13 02:06:33;;;;;;;;;;;17.30;1.00;;;;;;5031394;28;19929;-70
2023/07/13 02:08:59;;;;;;;;;;;17.30;15.40;;;;;;5031370;28;20378;-71
2023/07/13 02:11:24;;;;;;;;;;;17.20;1.00;;;;;;5031342;28;20444;-70
2023/07/13 02:13:51;;;;;;;;;;;17.30;39.50;;;;;;5031019;28;19925;-70
2023/07/13 02:16:16;;;;;;;;;;;17.30;57.70;;;;;;5031627;28;19968;-70
2023/07/13 02:18:42;;;;;;;;;;;17.30;99.90;;;;;;5030433;28;20410;-70
2023/07/13 02:21:07;;;;;;;;;;;17.30;99.90;;;;;;5031528;28;20306;-70
2023/07/13 02:23:33;;;;;;;;;;;17.30;99.90;;;;;;5031050;28;20192;-70
2023/07/13 02:26:00;;;;;;;;;;;17.30;99.90;;;;;;5030948;28;20350;-70
2023/07/13 02:28:25;;;;;;;;;;;17.30;99.90;;;;;;5030307;28;19925;-70
2023/07/13 02:30:51;;;;;;;;;;;17.30;99.90;;;;;;5028205;28;19925;-70
2023/07/13 02:33:17;;;;;;;;;;;17.30;99.90;;;;;;5030826;28;19929;-71
2023/07/13 02:35:42;;;;;;;;;;;17.30;99.90;;;;;;5030482;28;19932;-70
2023/07/13 02:38:08;;;;;;;;;;;17.30;99.90;;;;;;5012323;28;19925;-70
2023/07/13 02:40:35;;;;;;;;;;;17.30;99.90;;;;;;5030653;28;19925;-70
2023/07/13 02:43:01;;;;;;;;;;;17.30;99.90;;;;;;5030419;28;19925;-70
2023/07/13 02:45:26;;;;;;;;;;;17.30;99.90;;;;;;5030673;28;19925;-70
2023/07/13 02:47:52;;;;;;;;;;;17.20;99.90;;;;;;5030693;28;19932;-70
2023/07/13 02:50:17;;;;;;;;;;;17.20;99.90;;;;;;5030547;28;19976;-70
2023/07/13 02:52:43;;;;;;;;;;;17.20;99.90;;;;;;5030408;28;19925;-70
2023/07/13 02:55:08;;;;;;;;;;;17.20;99.90;;;;;;5030046;28;19931;-70
2023/07/13 02:57:34;;;;;;;;;;;17.10;99.90;;;;;;5030461;28;19925;-70
2023/07/13 03:00:00;;;;;;;;;;;17.10;99.90;;;;;;5030474;28;20533;-70
2023/07/13 03:02:27;;;;;;;;;;;17.10;99.90;;;;;;5030523;28;19932;-70
2023/07/13 03:04:54;;;;;;;;;;;17.10;99.90;;;;;;5030291;28;20402;-70
2023/07/13 03:07:20;;;;;;;;;;;17.10;99.90;;;;;;5027050;28;20626;-70
2023/07/13 03:09:45;;;;;;;;;;;17.00;99.90;;;;;;5030200;28;19955;-70
2023/07/13 03:12:11;;;;;;;;;;;17.10;99.90;;;;;;5030682;28;19925;-70
2023/07/13 03:14:36;;;;;;;;;;;17.00;99.90;;;;;;5030457;28;19929;-70
2023/07/13 03:17:02;;;;;;;;;;;17.00;99.90;;;;;;5030352;28;19968;-70
2023/07/13 03:19:27;;;;;;;;;;;16.90;99.90;;;;;;5024428;28;19925;-70
2023/07/13 03:21:53;;;;;;;;;;;16.90;99.90;;;;;;5030940;28;20034;-69
2023/07/13 03:24:19;;;;;;;;;;;16.90;99.90;;;;;;5030970;28;20015;-69
2023/07/13 03:26:44;;;;;;;;;;;16.90;99.90;;;;;;5030667;28;19936;-69
2023/07/13 03:29:10;;;;;;;;;;;16.80;99.90;;;;;;5030534;28;19970;-70
2023/07/13 03:31:36;;;;;;;;;;;16.80;99.90;;;;;;5030570;28;19948;-69
2023/07/13 03:34:02;;;;;;;;;;;16.80;99.90;;;;;;5030587;28;19925;-69
2023/07/13 03:36:29;;;;;;;;;;;16.70;99.90;;;;;;5029996;28;20295;-70
2023/07/13 03:38:58;;;;;;;;;;;16.80;99.90;;;;;;5030439;28;19932;-69
2023/07/13 03:41:24;;;;;;;;;;;16.70;99.90;;;;;;5030589;28;20077;-69
2023/07/13 03:43:53;;;;;;;;;;;16.70;99.90;;;;;;5015364;28;20055;-69
2023/07/13 03:46:19;;;;;;;;;;;16.70;99.90;;;;;;5028703;28;19971;-70
2023/07/13 03:48:46;;;;;;;;;;;16.70;99.90;;;;;;5029520;28;19960;-69
2023/07/13 03:51:14;;;;;;;;;;;16.70;99.90;;;;;;5011942;28;19929;-70
2023/07/13 03:53:43;;;;;;;;;;;16.70;99.90;;;;;;5029758;28;19960;-69
2023/07/13 03:56:09;;;;;;;;;;;16.70;99.90;;;;;;5029160;28;19932;-69
2023/07/13 03:58:36;;;;;;;;;;;16.70;99.90;;;;;;5028729;28;19925;-70
2023/07/13 04:01:03;;;;;;;;;;;16.70;99.90;;;;;;5029670;28;20296;-69
2023/07/13 04:03:29;;;;;;;;;;;16.80;99.90;;;;;;5029160;28;19925;-70
2023/07/13 04:05:59;;;;;;;;;;;16.80;99.90;;;;;;5011867;28;19925;-69
2023/07/13 04:08:28;;;;;;;;;;;16.80;99.90;;;;;;5029125;28;19925;-69
2023/07/13 04:10:54;;;;;;;;;;;16.90;99.90;;;;;;5027816;28;19932;-69
2023/07/13 04:13:20;;;;;;;;;;;16.90;99.90;;;;;;5016598;28;19925;-70
2023/07/13 04:15:45;;;;;;;;;;;16.90;99.90;;;;;;5028715;28;19929;-69
2023/07/13 04:18:11;;;;;;;;;;;16.90;99.90;;;;;;5014156;28;19929;-69
2023/07/13 04:20:36;;;;;;;;;;;16.90;99.90;;;;;;5029239;28;19936;-70
2023/07/13 04:23:02;;;;;;;;;;;17.00;99.90;;;;;;5029885;28;19929;-70
2023/07/13 04:25:27;;;;;;;;;;;17.00;99.90;;;;;;5029875;28;19940;-69
2023/07/13 04:27:53;;;;;;;;;;;17.00;1.00;;;;;;5029335;28;19925;-70
2023/07/13 04:30:19;;;;;;;;;;;17.00;1.00;;;;;;5027116;28;19925;-69
2023/07/13 04:32:45;;;;;;;;;;;17.10;1.00;;;;;;5025017;28;19925;-69
2023/07/13 04:35:10;;;;;;;;;;;17.00;1.00;;;;;;5029072;28;19933;-70
2023/07/13 04:37:36;;;;;;;;;;;17.00;1.00;;;;;;5030130;28;19964;-70
2023/07/13 04:40:01;;;;;;;;;;;17.00;1.00;;;;;;5030018;28;19940;-69
2023/07/13 04:42:27;;;;;;;;;;;17.00;1.00;;;;;;5029567;28;19928;-69
2023/07/13 04:44:53;;;;;;;;;;;16.90;1.00;;;;;;5029510;28;20676;-69
2023/07/13 04:47:18;;;;;;;;;;;16.90;1.00;;;;;;5029545;28;19925;-69
2023/07/13 04:49:44;;;;;;;;;;;16.90;1.00;;;;;;5029661;28;19925;-69
2023/07/13 04:52:10;;;;;;;;;;;16.90;1.00;;;;;;5028758;28;19964;-69
2023/07/13 04:54:37;;;;;;;;;;;16.90;1.00;;;;;;5029582;28;19975;-70
2023/07/13 04:57:02;;;;;;;;;;;16.90;1.00;;;;;;5022810;28;19929;-69
2023/07/13 04:59:28;;;;;;;;;;;16.90;1.00;;;;;;5029878;28;20433;-70
2023/07/13 05:01:53;;;;;;;;;;;17.00;1.00;;;;;;5028327;28;20016;-69
2023/07/13 05:04:19;;;;;;;;;;;17.00;1.00;;;;;;5029122;28;19926;-70
2023/07/13 05:06:44;;;;;;;;;;;17.10;1.00;;;;;;5029101;28;19932;-69
2023/07/13 05:09:10;;;;;;;;;;;17.10;1.00;;;;;;5029371;28;19925;-69
2023/07/13 05:11:35;;;;;;;;;;;17.10;1.00;;;;;;5029109;28;20370;-70
2023/07/13 05:14:01;;;;;;;;;;;17.20;1.00;;;;;;5029520;28;19960;-69
2023/07/13 05:16:27;;;;;;;;;;;17.20;1.00;;;;;;5028459;28;19979;-69
2023/07/13 05:18:52;;;;;;;;;;;17.20;1.00;;;;;;5029496;28;19925;-69
2023/07/13 05:21:18;;;;;;;;;;;17.20;1.00;;;;;;5028840;28;19972;-69
2023/07/13 05:23:43;;;;;;;;;;;17.30;1.00;;;;;;5028226;28;19925;-69
2023/07/13 05:26:09;;;;;;;;;;;17.30;1.00;;;;;;5027427;28;19925;-70
2023/07/13 05:28:35;;;;;;;;;;;17.40;1.00;;;;;;5027543;28;20375;-69
2023/07/13 05:31:01;;;;;;;;;;;17.40;1.00;;;;;;5027720;28;20009;-69
2023/07/13 05:33:27;;;;;;;;;;;17.50;1.00;;;;;;5028311;28;19925;-70
2023/07/13 05:35:52;;;;;;;;;;;17.50;1.00;;;;;;5023382;28;20016;-69
2023/07/13 05:38:18;;;;;;;;;;;17.50;1.00;;;;;;5028639;28;19925;-69
2023/07/13 05:40:43;;;;;;;;;;;17.60;1.00;;;;;;5028805;28;19932;-69
2023/07/13 05:43:09;;;;;;;;;;;17.60;1.00;;;;;;5029014;28;20020;-69
2023/07/13 05:45:35;;;;;;;;;;;17.70;1.00;;;;;;5022976;28;19925;-70
2023/07/13 05:48:00;;;;;;;;;;;17.60;1.00;;;;;;5028594;28;20542;-69
2023/07/13 05:50:26;;;;;;;;;;;17.70;1.00;;;;;;5029477;28;19970;-69
2023/07/13 05:52:52;;;;;;;;;;;17.70;1.00;;;;;;5029375;28;19929;-69
2023/07/13 05:55:18;;;;;;;;;;;17.80;1.00;;;;;;5020984;28;20003;-69
2023/07/13 05:57:43;;;;;;;;;;;17.80;1.00;;;;;;5017774;28;19931;-70
2023/07/13 06:00:09;;;;;;;;;;;17.80;1.00;;;;;;5011590;28;19932;-70
2023/07/13 06:02:35;;;;;;;;;;;17.90;1.00;;;;;;5029305;28;19925;-70
2023/07/13 06:05:00;;;;;;;;;;;17.90;1.00;;;;;;5031576;28;20382;-69
2023/07/13 06:07:26;;;;;;;;;;;18.00;1.00;;;;;;5030887;28;19929;-70
2023/07/13 06:09:51;;;;;;;;;;;18.00;1.00;;;;;;5032443;28;19972;-69
2023/07/13 06:12:17;;;;;;;;;;;18.10;1.00;;;;;;5032717;28;20651;-69
2023/07/13 06:14:42;;;;;;;;;;;18.10;1.00;;;;;;5031973;28;19928;-69
2023/07/13 06:17:08;;;;;;;;;;;18.10;1.00;;;;;;5032482;28;19933;-69
2023/07/13 06:19:34;;;;;;;;;;;18.00;1.00;;;;;;5031428;28;19975;-69
2023/07/13 06:21:59;;;;;;;;;;;18.10;1.00;;;;;;5032471;28;19925;-69
2023/07/13 06:24:25;;;;;;;;;;;18.20;1.00;;;;;;5032100;28;20353;-69
2023/07/13 06:26:51;;;;;;;;;;;18.20;1.00;;;;;;5032239;28;20284;-69
2023/07/13 06:29:16;;;;;;;;;;;18.30;1.00;;;;;;5030788;28;19925;-69
2023/07/13 06:31:42;;;;;;;;;;;18.30;1.00;;;;;;5031797;28;19964;-69
2023/07/13 06:34:07;;;;;;;;;;;18.40;1.00;;;;;;5031847;28;19925;-69
2023/07/13 06:36:33;;;;;;;;;;;18.40;1.00;;;;;;5031792;28;20302;-70
2023/07/13 06:38:59;;;;;;;;;;;18.40;1.00;;;;;;5027106;28;19933;-70
2023/07/13 06:41:26;;;;;;;;;;;18.50;1.00;;;;;;5032093;28;19925;-69
2023/07/13 06:43:52;;;;;;;;;;;18.50;1.00;;;;;;5031619;28;20448;-70
2023/07/13 06:46:17;;;;;;;;;;;18.50;99.90;;;;;;5031749;28;19944;-69
2023/07/13 06:48:43;;;;;;;;;;;18.60;99.90;;;;;;5025109;28;19925;-69
2023/07/13 06:51:09;;;;;;;;;;;18.70;99.90;;;;;;5028610;28;19939;-69
2023/07/13 06:53:34;;;;;;;;;;;18.70;99.90;;;;;;5031018;28;19970;-70
2023/07/13 06:55:59;;;;;;;;;;;18.80;99.90;;;;;;5031910;28;19932;-70
2023/07/13 06:58:25;;;;;;;;;;;18.80;99.90;;;;;;5013795;28;19933;-69
2023/07/13 07:00:51;;;;;;;;;;;18.90;99.90;;;;;;5031697;28;19932;-70
2023/07/13 07:03:17;;;;;;;;;;;19.00;99.90;;;;;;5030599;28;19979;-70
2023/07/13 07:05:42;;;;;;;;;;;19.10;99.90;;;;;;5013832;28;19960;-70
2023/07/13 07:08:08;;;;;;;;;;;19.30;99.90;;;;;;5030897;28;20030;-69
2023/07/13 07:10:34;;;;;;;;;;;19.40;99.90;;;;;;5031095;28;19931;-69
2023/07/13 07:12:59;;;;;;;;;;;19.40;99.90;;;;;;5030679;28;19933;-69
2023/07/13 07:15:25;;;;;;;;;;;19.50;92.60;;;;;;5028485;28;19925;-69
2023/07/13 07:17:51;;;;;;;;;;;19.50;1.00;;;;;;5031082;28;20329;-70
2023/07/13 07:20:16;;;;;;;;;;;19.40;99.90;;;;;;5031095;28;20353;-70
2023/07/13 07:22:42;;;;;;;;;;;19.50;99.90;;;;;;5030129;28;20470;-70
2023/07/13 07:25:07;;;;;;;;;;;19.60;99.90;;;;;;5031138;28;19925;-70
2023/07/13 07:27:33;;;;;;;;;;;19.70;99.90;;;;;;5030688;28;19929;-69
2023/07/13 07:29:58;;;;;;;;;;;19.80;99.90;;;;;;5030368;28;20020;-69
2023/07/13 07:32:24;;;;;;;;;;;19.70;1.00;;;;;;5029808;28;19932;-69
2023/07/13 07:34:50;;;;;;;;;;;19.70;99.90;;;;;;5026511;28;19944;-69
2023/07/13 07:37:15;;;;;;;;;;;19.60;99.90;;;;;;5029305;28;20378;-69
2023/07/13 07:39:42;;;;;;;;;;;19.60;99.90;;;;;;5030078;28;19933;-71
2023/07/13 07:42:08;;;;;;;;;;;19.70;99.90;;;;;;5023703;28;19963;-69
2023/07/13 07:44:34;;;;;;;;;;;19.80;99.90;;;;;;5041791;28;19957;-69
2023/07/13 07:46:59;;;;;;;;;;;19.90;99.90;;;;;;5029721;28;19968;-69
2023/07/13 07:49:25;;;;;;;;;;;20.00;99.90;;;;;;5030047;28;19925;-69
2023/07/13 07:51:50;;;;;;;;;;;20.20;1.00;;;;;;5028908;28;20417;-71
2023/07/13 07:54:16;;;;;;;;;;;20.30;14.20;;;;;;5041075;28;19936;-71
2023/07/13 07:56:42;;;;;;;;;;;20.40;99.90;;;;;;5029487;28;20047;-72
2023/07/13 07:59:07;;;;;;;;;;;20.50;99.90;;;;;;5029806;28;19979;-71
2023/07/13 08:01:33;;;;;;;;;;;20.60;1.00;;;;;;5029844;28;19929;-71
2023/07/13 08:03:58;;;;;;;;;;;20.50;1.00;;;;;;5030165;28;19931;-69
2023/07/13 08:06:24;;;;;;;;;;;20.40;1.00;;;;;;5030163;28;19925;-69
2023/07/13 08:08:49;;;;;;;;;;;20.30;99.90;;;;;;5029770;28;19929;-69
2023/07/13 08:11:15;;;;;;;;;;;20.40;99.90;;;;;;5029805;28;20365;-71
2023/07/13 08:13:40;;;;;;;;;;;20.40;99.90;;;;;;5030116;28;19976;-69
2023/07/13 08:16:06;;;;;;;;;;;20.50;56.30;;;;;;5029818;28;19925;-71
2023/07/13 08:18:32;;;;;;;;;;;20.70;1.00;;;;;;5022600;28;20379;-71
2023/07/13 08:20:58;;;;;;;;;;;20.90;99.90;;;;;;5029722;28;19932;-71
2023/07/13 08:23:24;;;;;;;;;;;21.10;99.90;;;;;;5029866;28;19925;-71
2023/07/13 08:25:51;;;;;;;;;;;21.20;1.00;;;;;;5029239;28;19937;-71
2023/07/13 08:28:16;;;;;;;;;;;21.20;99.90;;;;;;5029584;28;19932;-71
2023/07/13 08:30:42;;;;;;;;;;;21.20;99.90;;;;;;5011362;28;20314;-71
2023/07/13 08:33:07;;;;;;;;;;;21.10;99.90;;;;;;5029783;28;19933;-71
2023/07/13 08:35:33;;;;;;;;;;;20.90;99.90;;;;;;5029332;28;19972;-69
2023/07/13 08:38:00;;;;;;;;;;;20.80;99.90;;;;;;5028113;28;19925;-69
2023/07/13 08:40:27;;;;;;;;;;;20.80;99.90;;;;;;5027520;28;19933;-71
2023/07/13 08:42:58;;;;;;;;;;;20.80;99.90;;;;;;5029089;28;20028;-71
2023/07/13 08:45:27;;;;;;;;;;;20.70;1.00;;;;;;5029404;28;19925;-71
2023/07/13 08:47:54;;;;;;;;;;;20.70;99.90;;;;;;5029551;28;19978;-71
2023/07/13 08:50:22;;;;;;;;;;;20.70;99.90;;;;;;5029378;28;19937;-71
2023/07/13 08:52:48;;;;;;;;;;;20.70;99.90;;;;;;5028703;28;19975;-71
2023/07/13 08:55:18;;;;;;;;;;;20.90;99.90;;;;;;5007095;28;19929;-71
2023/07/13 08:57:46;;;;;;;;;;;21.00;99.90;;;;;;5029606;28;19931;-70
2023/07/13 09:00:14;;;;;;;;;;;21.20;99.90;;;;;;5028403;28;19925;-71
2023/07/13 09:02:48;;;;;;;;;;;21.20;99.90;;;;;;5029423;28;20008;-71
2023/07/13 09:05:17;;;;;;;;;;;21.20;37.70;;;;;;5029184;28;20294;-71
2023/07/13 09:08:01;;;;;;;;;;;21.10;60.50;;;;;;5029292;28;20314;-71
2023/07/13 09:10:27;;;;;;;;;;;21.00;1.50;;;;;;5019258;28;19979;-71
2023/07/13 09:12:56;;;;;;;;;;;21.00;1.00;;;;;;5028951;28;19929;-71
2023/07/13 09:15:24;;;;;;;;;;;20.90;1.00;;;;;;5029320;28;19925;-71
2023/07/13 09:17:51;;;;;;;;;;;20.90;1.00;;;;;;5028696;28;19929;-71
2023/07/13 09:20:21;;;;;;;;;;;20.90;1.00;;;;;;5029507;28;20305;-71
2023/07/13 09:22:47;;;;;;;;;;;21.00;1.00;;;;;;5029149;28;20056;-71
2023/07/13 09:25:38;;;;;;;;;;;21.00;1.00;;;;;;5028279;28;20031;-71
2023/07/13 09:28:12;;;;;;;;;;;21.00;1.00;;;;;;5022864;28;20436;-70
2023/07/13 09:30:57;;;;;;;;;;;21.00;1.00;;;;;;5028542;28;19929;-70
2023/07/13 09:33:22;;;;;;;;;;;21.10;1.00;;;;;;5029343;28;19979;-71
2023/07/13 09:35:49;;;;;;;;;;;21.10;1.00;;;;;;5028842;28;19929;-71
2023/07/13 09:38:15;;;;;;;;;;;21.10;1.00;;;;;;5030745;28;20437;-71
2023/07/13 09:40:44;;;;;;;;;;;21.10;1.00;;;;;;5032532;28;19929;-71
2023/07/13 09:43:12;;;;;;;;;;;21.20;1.00;;;;;;5032552;28;19925;-71
2023/07/13 09:45:39;;;;;;;;;;;21.40;1.00;;;;;;5031611;28;20022;-71
2023/07/13 09:48:12;;;;;;;;;;;21.70;1.00;;;;;;5032252;28;19925;-71
2023/07/13 09:50:37;;;;;;;;;;;22.00;1.00;;;;;;5032261;28;19929;-71
2023/07/13 09:53:03;;;;;;;;;;;22.10;1.00;;;;;;5032275;28;19926;-71
2023/07/13 09:55:30;;;;;;;;;;;22.00;1.00;;;;;;5032350;28;19929;-71
2023/07/13 09:57:56;;;;;;;;;;;21.90;1.00;;;;;;5032001;28;19951;-71
2023/07/13 10:00:27;;;;;;;;;;;21.60;1.00;;;;;;5032575;28;19935;-70
2023/07/13 10:03:00;;;;;;;;;;;21.30;1.00;;;;;;5032412;28;19973;-71
2023/07/13 10:05:26;;;;;;;;;;;21.10;99.90;;;;;;5032292;28;19978;-71
2023/07/13 10:07:55;;;;;;;;;;;21.00;99.90;;;;;;5031551;28;20338;-71
2023/07/13 10:10:22;;;;;;;;;;;20.80;99.90;;;;;;5032306;28;19929;-72
2023/07/13 10:12:48;;;;;;;;;;;20.60;99.90;;;;;;5032019;28;20014;-71
2023/07/13 10:15:18;;;;;;;;;;;20.50;99.90;;;;;;5032199;28;19925;-71
2023/07/13 10:17:44;;;;;;;;;;;20.20;99.90;;;;;;5031444;28;19968;-71
2023/07/13 10:20:12;;;;;;;;;;;20.00;1.00;;;;;;5032026;28;20280;-71
2023/07/13 10:22:56;;;;;;;;;;;19.70;99.90;;;;;;5026319;28;19929;-71
2023/07/13 10:25:24;;;;;;;;;;;19.60;99.90;;;;;;5031996;28;19929;-71
2023/07/13 10:27:52;;;;;;;;;;;19.40;99.90;;;;;;5031527;28;20027;-71
2023/07/13 10:30:29;;;;;;;;;;;19.30;1.00;;;;;;5031764;28;19960;-71
2023/07/13 10:32:58;;;;;;;;;;;19.10;99.90;;;;;;5019946;28;20008;-71
2023/07/13 10:35:23;;;;;;;;;;;19.20;99.90;;;;;;5031240;28;19932;-71
2023/07/13 10:38:10;;;;;;;;;;;19.30;1.00;;;;;;5031626;28;19925;-71
2023/07/13 10:40:37;;;;;;;;;;;19.70;99.90;;;;;;5030989;28;19933;-72
2023/07/13 10:43:06;;;;;;;;;;;20.00;99.90;;;;;;5028652;28;19933;-71
2023/07/13 10:45:34;;;;;;;;;;;20.00;99.90;;;;;;5031240;28;19929;-72
2023/07/13 10:47:59;;;;;;;;;;;20.00;99.90;;;;;;5031740;28;19925;-71
2023/07/13 10:50:26;;;;;;;;;;;19.90;99.90;;;;;;5030088;28;20409;-71
2023/07/13 10:53:01;;;;;;;;;;;19.90;1.00;;;;;;5031866;28;19932;-71
2023/07/13 10:55:30;;;;;;;;;;;19.90;1.00;;;;;;5031116;28;19925;-71
2023/07/13 10:57:59;;;;;;;;;;;20.10;99.90;;;;;;5031291;28;19932;-71
2023/07/13 11:00:25;;;;;;;;;;;20.60;99.90;;;;;;5017696;28;19925;-71
2023/07/13 11:03:00;;;;;;;;;;;20.90;1.00;;;;;;4997598;28;19951;-71
2023/07/13 11:05:28;;;;;;;;;;;21.10;99.90;;;;;;5031543;28;20275;-71
2023/07/13 11:07:56;;;;;;;;;;;21.30;99.90;;;;;;5031457;28;19968;-71
2023/07/13 11:10:41;;;;;;;;;;;21.20;1.00;;;;;;5031610;28;19936;-71
2023/07/13 11:13:26;;;;;;;;;;;21.40;1.00;;;;;;5031002;28;20020;-71
2023/07/13 11:15:52;;;;;;;;;;;21.60;99.90;;;;;;5030667;28;19936;-71
2023/07/13 11:18:22;;;;;;;;;;;21.90;97.40;;;;;;5030825;28;19929;-71
2023/07/13 11:20:48;;;;;;;;;;;22.30;1.00;;;;;;5030541;28;19968;-71
2023/07/13 11:23:16;;;;;;;;;;;22.60;1.00;;;;;;5031375;28;19939;-71
2023/07/13 11:25:41;;;;;;;;;;;22.50;1.00;;;;;;5030839;28;19933;-68
2023/07/13 11:28:07;;;;;;;;;;;22.30;1.00;;;;;;5030245;28;20005;-69
2023/07/13 11:30:39;;;;;;;;;;;22.20;99.90;;;;;;5024493;28;20335;-69
2023/07/13 11:33:14;;;;;;;;;;;22.30;99.90;;;;;;5030992;28;19932;-69
2023/07/13 11:35:50;;;;;;;;;;;22.50;99.90;;;;;;5029842;28;20396;-69
2023/07/13 11:38:27;;;;;;;;;;;22.80;99.90;;;;;;5030380;28;20533;-70
2023/07/13 11:40:54;;;;;;;;;;;23.30;99.90;;;;;;5030182;28;20287;-70
2023/07/13 11:43:23;;;;;;;;;;;23.60;99.90;;;;;;5030375;28;19925;-69
2023/07/13 11:45:49;;;;;;;;;;;23.50;99.90;;;;;;5025479;28;19925;-69
2023/07/13 11:48:21;;;;;;;;;;;23.40;99.90;;;;;;5030405;28;20314;-69
2023/07/13 11:50:54;;;;;;;;;;;23.40;99.90;;;;;;5029863;28;19957;-70
2023/07/13 11:53:20;;;;;;;;;;;23.40;99.90;;;;;;5029158;28;20584;-69
2023/07/13 11:55:47;;;;;;;;;;;23.50;99.90;;;;;;5030540;28;19929;-70
2023/07/13 11:58:20;;;;;;;;;;;23.50;99.90;;;;;;5029846;28;19979;-70
2023/07/13 12:00:46;;;;;;;;;;;23.30;99.90;;;;;;5029688;28;19929;-69
2023/07/13 12:03:20;;;;;;;;;;;23.00;99.90;;;;;;5029981;28;19971;-69
2023/07/13 12:06:15;;;;;;;;;;;22.90;99.90;;;;;;5030362;28;19936;-69
2023/07/13 12:08:40;;;;;;;;;;;23.10;99.90;;;;;;5014247;28;20044;-70
2023/07/13 12:11:14;;;;;;;;;;;23.10;99.90;;;;;;5029112;28;20015;-69
2023/07/13 12:13:40;;;;;;;;;;;23.00;99.90;;;;;;5030408;28;19925;-70
2023/07/13 12:16:11;;;;;;;;;;;23.00;99.90;;;;;;5029911;28;19997;-69
2023/07/13 12:18:36;;;;;;;;;;;23.30;99.90;;;;;;5029675;28;19979;-69
2023/07/13 12:21:03;;;;;;;;;;;23.80;99.90;;;;;;5029592;28;19972;-69
2023/07/13 12:23:32;;;;;;;;;;;24.20;99.90;;;;;;5012639;28;19926;-69
2023/07/13 12:25:59;;;;;;;;;;;24.40;99.90;;;;;;5028924;28;20016;-70
2023/07/13 12:28:30;;;;;;;;;;;24.10;99.90;;;;;;5029607;28;19925;-69
2023/07/13 12:30:58;;;;;;;;;;;23.70;99.90;;;;;;4996372;28;20681;-70
2023/07/13 12:33:24;;;;;;;;;;;23.60;99.90;;;;;;4992483;28;19968;-70
2023/07/13 12:35:52;;;;;;;;;;;23.90;99.90;;;;;;5009356;28;20019;-69
2023/07/13 12:38:18;;;;;;;;;;;24.40;99.90;;;;;;4992184;28;19933;-69
2023/07/13 12:40:43;;;;;;;;;;;24.70;99.90;;;;;;5027058;28;20421;-70
2023/07/13 12:43:13;;;;;;;;;;;24.90;99.90;;;;;;5026588;28;20494;-70
2023/07/13 12:45:38;;;;;;;;;;;25.20;99.90;;;;;;5026689;28;19936;-70
2023/07/13 12:48:09;;;;;;;;;;;25.70;99.90;;;;;;5027969;28;19925;-70
2023/07/13 12:50:40;;;;;;;;;;;26.10;99.90;;;;;;5007517;28;19933;-70
2023/07/13 12:53:11;;;;;;;;;;;26.00;99.90;;;;;;5025591;28;19972;-69
2023/07/13 12:55:44;;;;;;;;;;;25.60;99.90;;;;;;5015804;28;20448;-70
2023/07/13 12:58:16;;;;;;;;;;;25.50;99.90;;;;;;4996625;28;19939;-70
2023/07/13 13:00:48;;;;;;;;;;;25.40;99.90;;;;;;5029139;28;19940;-70
2023/07/13 13:03:20;;;;;;;;;;;25.50;99.90;;;;;;4994682;28;20457;-70
2023/07/13 13:05:46;;;;;;;;;;;25.40;99.90;;;;;;5028489;28;19941;-70
2023/07/13 13:08:12;;;;;;;;;;;25.00;99.90;;;;;;5025630;28;19925;-70
2023/07/13 13:10:37;;;;;;;;;;;24.60;99.90;;;;;;5027472;28;20016;-70
2023/07/13 13:13:03;;;;;;;;;;;24.20;99.90;;;;;;5027389;28;20074;-69
2023/07/13 13:15:29;;;;;;;;;;;23.70;99.90;;;;;;5031743;28;19957;-69
2023/07/13 13:17:55;;;;;;;;;;;23.40;99.90;;;;;;5028895;28;19960;-69
2023/07/13 13:20:21;;;;;;;;;;;23.20;99.90;;;;;;5031146;28;20350;-69
2023/07/13 13:22:47;;;;;;;;;;;23.30;99.90;;;;;;5029703;28;19925;-70
2023/07/13 13:25:14;;;;;;;;;;;23.70;99.90;;;;;;5021783;28;19926;-69
2023/07/13 13:27:43;;;;;;;;;;;24.10;99.90;;;;;;5027033;28;19925;-69
2023/07/13 13:30:17;;;;;;;;;;;24.10;99.90;;;;;;5013289;28;20383;-69
2023/07/13 13:32:44;;;;;;;;;;;24.00;99.90;;;;;;5028784;28;19925;-69
2023/07/13 13:35:14;;;;;;;;;;;23.80;99.90;;;;;;5031729;28;19932;-69
2023/07/13 13:37:41;;;;;;;;;;;23.80;99.90;;;;;;5028719;28;19925;-69
2023/07/13 13:40:21;;;;;;;;;;;24.10;99.90;;;;;;5030400;28;19932;-69
2023/07/13 13:42:46;;;;;;;;;;;24.50;99.90;;;;;;5008453;28;19929;-70
2023/07/13 13:45:17;;;;;;;;;;;25.10;99.90;;;;;;5028100;28;20279;-70
2023/07/13 13:47:43;;;;;;;;;;;25.40;99.90;;;;;;5015101;28;19955;-70
2023/07/13 13:50:14;;;;;;;;;;;25.60;99.90;;;;;;5027818;28;19944;-70
2023/07/13 13:52:40;;;;;;;;;;;25.30;99.90;;;;;;5022576;28;19925;-69
2023/07/13 13:55:15;;;;;;;;;;;24.70;99.90;;;;;;5027614;28;19936;-70
2023/07/13 13:57:41;;;;;;;;;;;24.10;99.90;;;;;;5020803;28;19938;-69
2023/07/13 14:00:09;;;;;;;;;;;24.10;99.90;;;;;;5012822;28;19926;-69
2023/07/13 14:02:34;;;;;;;;;;;24.50;99.90;;;;;;5013098;28;19932;-70
2023/07/13 14:05:02;;;;;;;;;;;24.70;99.90;;;;;;5012571;28;19925;-69
2023/07/13 14:07:29;;;;;;;;;;;24.60;99.90;;;;;;5023644;28;19925;-69
2023/07/13 14:09:58;;;;;;;;;;;24.50;99.90;;;;;;4997939;28;19991;-69
2023/07/13 14:12:28;;;;;;;;;;;24.10;99.90;;;;;;5032074;28;19925;-69
2023/07/13 14:14:55;;;;;;;;;;;23.80;99.90;;;;;;5025203;28;20391;-70
2023/07/13 14:17:22;;;;;;;;;;;23.50;99.90;;;;;;5024640;28;19932;-70
2023/07/13 14:19:56;;;;;;;;;;;23.20;99.90;;;;;;5030509;28;19951;-70
2023/07/13 14:22:23;;;;;;;;;;;22.70;99.90;;;;;;5029784;28;20016;-70